Aérodrome :
LOGIN :

S'inscrire | Disclaimer

   EN    FR    IT 

 










Légende :    VFR   VFR Marginal   IFR   IFR Intensif   IFR Très Intensif
Visi : 
Plafond : 
>= 8 km
>= 3000ft
5 à 8 km
1000 à 3000 ft
1500m à 5 km
500 à 1000 ft
800 à 1500m
200 à 500 ft
< 800m
< 200 ft
Symboles :   Orages  Brouillard  Fortes neiges  Fortes précipitations  Vent > 20 kt
SIGMETs :   Divers  Orages  Givrage  Turbulence  Onde Orograph.  Cendres Volcan.






- Altitude de l'aérodrome : 236 ft
- Code IATA : MMX


ESMS - Malmö Sturup

DERNIER METAR :
  • 231750Z 27010KT 9999 FEW014 03/02 Q0997

METARs EXPIRÉS :
  • 231720Z 26007KT 9999 FEW010 03/02 Q0997
  • 231650Z 27007KT 9999 SCT008 BKN015 03/03 Q0997
  • 231620Z 27007KT 9999 -SHRA SCT009 BKN023CB 04/03 Q0997
  • 231550Z 26009KT 9999 -SHRA BKN010CB 04/02 Q0997
  • 231520Z 25010KT 9999 -RA SCT008 BKN024 OVC038 04/02 Q0997

TAF TAF ESMS
Valide du 23 à 18h jusqu'au 24 à 18h UTC


231709Z 2318/2418 28010KT 9999 BKN020
TEMPO 2318/2403 28015G25KT BKN010 SCT020CB
BECMG 2415/2418 16010KT



MET'MAP, la Météo Aéronautique d'un coup d'oeil ! - Copyright ORBIFLY Décembre 2007 - Disclaimer

ORBIFLY MET'MAP TEAM :

Programmation & Développement : Alexandra Zaïnal
Sur une idée originale de : Baudouin d'Aumeries
Assistance à la programmation : Marc-Olivier Méhu
Soutien technique & logistique : Manuel Goepfert

Contact : metmap@orbifly.com




SOURCES & CREDITS :

   NOAA